D80 weather

Olcott-Newfane Airport
Olcott, New York, United States

Public forecast

Using degrees Fahrenheit for public forecast. Weather courtesy of forecast.io.

METAR (pilot weather report)

Closest report is Niagara Falls International Airport, 16.0 nm (29.6 km) SW. Retrieved 2019/06/15 20:53 UTC (1 hour ago):

KIAG 152053Z 23014G22KT 9SM OVC007 16/14 A2986 RMK AO2 PK WND 23030/2003 RAB11E38 SLP113 P0000 60000 T01560144 50005

TAF (pilot weather forecast)

Closest forecast is Niagara Falls International Airport, 16.0 nm (29.6 km) SW. Retrieved 2019/06/15 18:42 UTC (3 hours ago):

TAF KIAG 151738Z 1518/1618 23022G32KT P6SM BKN080 FM152000 23018G26KT P6SM VCSH OVC040 FM152300 23012KT 4SM SHRA BR OVC015 FM160300 VRB05KT 3SM -SHRA BR OVC007 FM160800 04008KT 5SM BR OVC007 FM161600 05010KT P6SM BKN015